createdAt,value
2016-03-20T00:00:50.648Z,0
2016-03-20T00:01:50.620Z,0
2016-03-20T00:02:50.607Z,0
2016-03-20T00:03:50.642Z,0
2016-03-20T00:04:50.675Z,0
2016-03-20T00:05:50.631Z,0
2016-03-20T00:06:50.524Z,0
2016-03-20T00:07:50.620Z,0
2016-03-20T00:08:50.638Z,0
2016-03-20T00:09:50.610Z,0
2016-03-20T00:10:50.613Z,0
2016-03-20T00:11:50.600Z,0
2016-03-20T00:12:50.618Z,0
2016-03-20T00:13:50.605Z,0
2016-03-20T00:14:50.623Z,0
2016-03-20T00:15:50.705Z,0
2016-03-20T00:16:50.629Z,0
2016-03-20T00:17:50.585Z,0
2016-03-20T00:18:50.602Z,0
2016-03-20T00:19:50.653Z,0
2016-03-20T00:20:50.608Z,0
2016-03-20T00:21:50.596Z,0
2016-03-20T00:22:50.598Z,0
2016-03-20T00:23:50.601Z,0
2016-03-20T00:24:50.587Z,0
2016-03-20T00:25:50.590Z,0
2016-03-20T00:26:50.578Z,0
2016-03-20T00:27:50.565Z,0
2016-03-20T00:28:50.567Z,0
2016-03-20T00:29:50.570Z,0
2016-03-20T00:30:50.651Z,0
2016-03-20T00:31:50.559Z,0
2016-03-20T00:32:50.578Z,0
2016-03-20T00:33:50.581Z,0
2016-03-20T00:34:50.599Z,0
2016-03-20T00:35:50.555Z,0
2016-03-20T00:36:50.573Z,0
2016-03-20T00:37:50.545Z,0
2016-03-20T00:38:50.563Z,0
2016-03-20T00:39:50.581Z,0
2016-03-20T00:40:50.569Z,0
2016-03-20T00:41:50.525Z,0
2016-03-20T00:42:50.574Z,0
2016-03-20T00:43:50.530Z,0
2016-03-20T00:44:50.563Z,0
2016-03-20T00:45:50.582Z,0
2016-03-20T00:46:50.569Z,0
2016-03-20T00:47:50.555Z,0
2016-03-20T00:48:50.575Z,0
2016-03-20T00:49:50.546Z,0
2016-03-20T00:50:50.533Z,0
2016-03-20T00:51:50.551Z,0
2016-03-20T00:52:50.554Z,0
2016-03-20T00:53:50.525Z,0
2016-03-20T00:54:50.512Z,0
2016-03-20T00:55:50.515Z,0
2016-03-20T00:56:50.534Z,0
2016-03-20T00:57:50.504Z,0
2016-03-20T00:58:50.523Z,0
2016-03-20T00:59:50.542Z,0
2016-03-20T01:00:50.560Z,0
2016-03-20T01:01:50.531Z,0
2016-03-20T01:02:50.503Z,0
2016-03-20T01:03:50.334Z,0
2016-03-20T01:04:50.508Z,0
2016-03-20T01:05:50.354Z,0
2016-03-20T01:06:50.529Z,0
2016-03-20T01:07:50.501Z,0
2016-03-20T01:08:50.503Z,0
2016-03-20T01:09:50.505Z,0
2016-03-20T01:10:50.540Z,0
2016-03-20T01:11:50.464Z,0
2016-03-20T01:12:50.483Z,0
2016-03-20T01:13:50.485Z,0
2016-03-20T01:14:50.503Z,0
2016-03-20T01:15:50.475Z,0
2016-03-20T01:16:50.477Z,0
2016-03-20T01:17:50.480Z,0
2016-03-20T01:18:50.483Z,0
2016-03-20T01:19:50.486Z,0
2016-03-20T01:20:50.488Z,0
2016-03-20T01:21:50.491Z,0
2016-03-20T01:22:50.509Z,0
2016-03-20T01:23:50.465Z,0
2016-03-20T01:24:50.468Z,0
2016-03-20T01:25:50.455Z,0
2016-03-20T01:26:50.458Z,0
2016-03-20T01:27:50.476Z,0
2016-03-20T01:28:50.448Z,0
2016-03-20T01:29:50.451Z,0
2016-03-20T01:30:50.469Z,0
2016-03-20T01:31:50.440Z,0
2016-03-20T01:32:50.490Z,0
2016-03-20T01:33:50.477Z,0
2016-03-20T01:34:50.479Z,0
2016-03-20T01:35:50.450Z,0
2016-03-20T01:36:50.484Z,0
2016-03-20T01:37:50.456Z,0
2016-03-20T01:38:50.428Z,0
2016-03-20T01:39:50.461Z,0
2016-03-20T01:40:50.418Z,0
2016-03-20T01:41:50.436Z,0
2016-03-20T01:42:50.423Z,0
2016-03-20T01:43:50.441Z,0
2016-03-20T01:44:50.444Z,0
2016-03-20T01:45:50.415Z,0
2016-03-20T01:46:50.433Z,0
2016-03-20T01:47:50.421Z,0
2016-03-20T01:48:50.407Z,0
2016-03-20T01:49:50.410Z,0
2016-03-20T01:50:50.429Z,0
2016-03-20T01:51:50.432Z,0
2016-03-20T01:52:50.435Z,0
2016-03-20T01:53:50.421Z,0
2016-03-20T01:54:50.440Z,0
2016-03-20T01:55:50.443Z,0
2016-03-20T01:56:50.460Z,0
2016-03-20T01:57:50.431Z,0
2016-03-20T01:58:50.451Z,0
2016-03-20T01:59:50.468Z,0
2016-03-20T02:00:50.424Z,0
2016-03-20T02:01:50.426Z,0
2016-03-20T02:02:50.414Z,0
2016-03-20T02:03:50.401Z,0
2016-03-20T02:04:50.435Z,0
2016-03-20T02:05:50.735Z,0
2016-03-20T02:06:50.456Z,0
2016-03-20T02:07:50.442Z,0
2016-03-20T02:08:50.398Z,0
2016-03-20T02:09:50.433Z,0
2016-03-20T02:10:50.404Z,0
2016-03-20T02:11:50.376Z,0
2016-03-20T02:12:50.379Z,0
2016-03-20T02:13:50.334Z,0
2016-03-20T02:14:50.369Z,0
2016-03-20T02:15:50.371Z,0
2016-03-20T02:16:50.374Z,0
2016-03-20T02:17:50.361Z,0
2016-03-20T02:18:50.363Z,0
2016-03-20T02:19:50.335Z,0
2016-03-20T02:20:50.337Z,0
2016-03-20T02:21:50.340Z,0
2016-03-20T02:22:50.343Z,0
2016-03-20T02:23:50.314Z,0
2016-03-20T02:24:50.349Z,0
2016-03-20T02:25:50.335Z,0
2016-03-20T02:26:50.338Z,0
2016-03-20T02:27:50.357Z,0
2016-03-20T02:28:50.343Z,0
2016-03-20T02:29:50.315Z,0
2016-03-20T02:30:50.333Z,0
2016-03-20T02:31:50.304Z,0
2016-03-20T02:32:50.276Z,0
2016-03-20T02:33:50.279Z,0
2016-03-20T02:34:50.140Z,0
2016-03-20T02:35:50.284Z,0
2016-03-20T02:36:50.240Z,0
2016-03-20T02:37:50.290Z,0
2016-03-20T02:38:50.245Z,0
2016-03-20T02:39:50.232Z,0
2016-03-20T02:40:50.298Z,0
2016-03-20T02:41:50.269Z,0
2016-03-20T02:42:50.240Z,0
2016-03-20T02:43:50.227Z,0
2016-03-20T02:44:50.261Z,0
2016-03-20T02:45:50.264Z,0
2016-03-20T02:46:50.219Z,0
2016-03-20T02:47:50.239Z,0
2016-03-20T02:48:50.241Z,0
2016-03-20T02:49:50.244Z,0
2016-03-20T02:50:50.090Z,0
2016-03-20T02:51:50.218Z,0
2016-03-20T02:52:50.236Z,0
2016-03-20T02:53:50.207Z,0
2016-03-20T02:54:50.210Z,0
2016-03-20T02:55:50.213Z,0
2016-03-20T02:56:50.200Z,0
2016-03-20T02:57:50.218Z,0
2016-03-20T02:58:50.205Z,0
2016-03-20T02:59:50.223Z,0
2016-03-20T03:00:50.180Z,0
2016-03-20T03:01:50.198Z,0
2016-03-20T03:02:50.200Z,0
2016-03-20T03:03:50.219Z,0
2016-03-20T03:04:50.268Z,0
2016-03-20T03:05:50.162Z,0
2016-03-20T03:06:50.202Z,0
2016-03-20T03:07:50.174Z,0
2016-03-20T03:08:50.161Z,0
2016-03-20T03:09:50.211Z,0
2016-03-20T03:10:50.197Z,0
2016-03-20T03:11:50.185Z,0
2016-03-20T03:12:50.172Z,0
2016-03-20T03:13:50.158Z,0
2016-03-20T03:14:50.161Z,0
2016-03-20T03:15:50.164Z,0
2016-03-20T03:16:50.135Z,0
2016-03-20T03:17:50.154Z,0
2016-03-20T03:18:50.172Z,0
2016-03-20T03:19:50.159Z,0
2016-03-20T03:20:50.021Z,0
2016-03-20T03:21:50.165Z,0
2016-03-20T03:22:50.120Z,0
2016-03-20T03:23:50.123Z,0
2016-03-20T03:24:50.173Z,0
2016-03-20T03:25:50.112Z,0
2016-03-20T03:26:50.116Z,0
2016-03-20T03:27:50.118Z,0
2016-03-20T03:28:50.121Z,0
2016-03-20T03:29:50.108Z,0
2016-03-20T03:30:50.126Z,0
2016-03-20T03:31:50.128Z,0
2016-03-20T03:32:50.117Z,0
2016-03-20T03:33:50.072Z,0
2016-03-20T03:34:49.965Z,0
2016-03-20T03:35:50.077Z,0
2016-03-20T03:36:50.095Z,0
2016-03-20T03:37:50.114Z,0
2016-03-20T03:38:50.148Z,0
2016-03-20T03:39:50.119Z,0
2016-03-20T03:40:50.074Z,0
2016-03-20T03:41:50.109Z,0
2016-03-20T03:42:50.111Z,0
2016-03-20T03:43:50.052Z,0
2016-03-20T03:44:50.116Z,0
2016-03-20T03:45:50.088Z,0
2016-03-20T03:46:50.091Z,0
2016-03-20T03:47:50.172Z,0
2016-03-20T03:48:50.080Z,0
2016-03-20T03:49:50.083Z,0
2016-03-20T03:50:50.040Z,0
2016-03-20T03:51:50.073Z,0
2016-03-20T03:52:50.077Z,0
2016-03-20T03:53:50.063Z,0
2016-03-20T03:54:50.035Z,0
2016-03-20T03:55:50.006Z,0
2016-03-20T03:56:50.056Z,0
2016-03-20T03:57:50.027Z,0
2016-03-20T03:58:50.029Z,0
2016-03-20T03:59:50.079Z,0
2016-03-20T04:00:50.003Z,0
2016-03-20T04:01:50.023Z,0
2016-03-20T04:02:50.045Z,0
2016-03-20T04:03:50.017Z,0
2016-03-20T04:04:50.066Z,0
2016-03-20T04:05:50.022Z,0
2016-03-20T04:06:49.853Z,0
2016-03-20T04:07:50.074Z,0
2016-03-20T04:08:50.014Z,0
2016-03-20T04:09:49.985Z,0
2016-03-20T04:10:50.035Z,0
2016-03-20T04:11:50.008Z,0
2016-03-20T04:12:50.010Z,0
2016-03-20T04:13:50.027Z,0
2016-03-20T04:14:50.000Z,0
2016-03-20T04:15:49.987Z,0
2016-03-20T04:16:49.989Z,0
2016-03-20T04:17:50.007Z,0
2016-03-20T04:18:50.026Z,0
2016-03-20T04:19:49.997Z,0
2016-03-20T04:20:49.985Z,0
2016-03-20T04:21:49.971Z,0
2016-03-20T04:22:49.989Z,0
2016-03-20T04:23:49.977Z,0
2016-03-20T04:24:49.995Z,0
2016-03-20T04:25:49.950Z,0
2016-03-20T04:26:49.954Z,0
2016-03-20T04:27:49.977Z,0
2016-03-20T04:28:49.920Z,0
2016-03-20T04:29:49.942Z,0
2016-03-20T04:30:49.979Z,0
2016-03-20T04:31:49.875Z,0
2016-03-20T04:32:49.902Z,0
2016-03-20T04:33:49.884Z,0
2016-03-20T04:34:49.868Z,0
2016-03-20T04:35:49.835Z,0
2016-03-20T04:36:49.848Z,0
2016-03-20T04:37:49.912Z,0
2016-03-20T04:38:49.835Z,0
2016-03-20T04:39:49.867Z,0
2016-03-20T04:40:49.868Z,0
2016-03-20T04:41:49.806Z,0
2016-03-20T04:42:49.808Z,0
2016-03-20T04:43:49.826Z,0
2016-03-20T04:44:49.797Z,0
2016-03-20T04:45:49.813Z,0
2016-03-20T04:46:49.847Z,0
2016-03-20T04:47:49.803Z,0
2016-03-20T04:48:49.790Z,0
2016-03-20T04:49:49.776Z,0
2016-03-20T04:50:49.779Z,0
2016-03-20T04:51:49.814Z,0
2016-03-20T04:52:49.784Z,0
2016-03-20T04:53:49.772Z,0
2016-03-20T04:54:49.853Z,0
2016-03-20T04:55:49.808Z,0
2016-03-20T04:56:49.765Z,0
2016-03-20T04:57:49.783Z,0
2016-03-20T04:58:49.800Z,0
2016-03-20T04:59:49.773Z,0
2016-03-20T05:00:49.744Z,0
2016-03-20T05:01:49.808Z,0
2016-03-20T05:02:49.781Z,0
2016-03-20T05:03:49.783Z,0
2016-03-20T05:04:49.739Z,0
2016-03-20T05:05:49.774Z,0
2016-03-20T05:06:49.713Z,0
2016-03-20T05:07:49.731Z,0
2016-03-20T05:08:49.750Z,0
2016-03-20T05:09:49.705Z,0
2016-03-20T05:10:49.707Z,0
2016-03-20T05:11:49.696Z,0
2016-03-20T05:12:49.745Z,0
2016-03-20T05:13:49.763Z,0
2016-03-20T05:14:49.704Z,0
2016-03-20T05:15:49.721Z,0
2016-03-20T05:16:49.756Z,0
2016-03-20T05:17:49.696Z,0
2016-03-20T05:18:49.729Z,0
2016-03-20T05:19:49.670Z,0
2016-03-20T05:20:49.704Z,0
2016-03-20T05:21:49.723Z,0
2016-03-20T05:22:49.678Z,0
2016-03-20T05:23:49.712Z,0
2016-03-20T05:24:49.621Z,0
2016-03-20T05:25:49.670Z,0
2016-03-20T05:26:49.673Z,0
2016-03-20T05:27:49.628Z,0
2016-03-20T05:28:49.663Z,0
2016-03-20T05:29:49.712Z,0
2016-03-20T05:30:49.637Z,0
2016-03-20T05:31:49.686Z,0
2016-03-20T05:32:49.627Z,0
2016-03-20T05:33:49.661Z,0
2016-03-20T05:34:49.507Z,0
2016-03-20T05:35:49.650Z,0
2016-03-20T05:36:49.653Z,0
2016-03-20T05:37:49.640Z,5
2016-03-20T05:38:49.643Z,5
2016-03-20T05:39:49.615Z,5
2016-03-20T05:40:49.632Z,5
2016-03-20T05:41:49.652Z,5
2016-03-20T05:42:49.576Z,5
2016-03-20T05:43:49.578Z,5
2016-03-20T05:44:49.613Z,5
2016-03-20T05:45:49.599Z,5
2016-03-20T05:46:49.601Z,5
2016-03-20T05:47:49.573Z,5
2016-03-20T05:48:49.623Z,5
2016-03-20T05:49:49.579Z,5
2016-03-20T05:50:49.582Z,10
2016-03-20T05:51:49.600Z,10
2016-03-20T05:52:49.571Z,10
2016-03-20T05:53:49.590Z,10
2016-03-20T05:54:49.561Z,10
2016-03-20T05:55:49.625Z,10
2016-03-20T05:56:49.628Z,10
2016-03-20T05:57:49.538Z,10
2016-03-20T05:58:49.541Z,10
2016-03-20T05:59:49.575Z,15
2016-03-20T06:00:49.530Z,15
2016-03-20T06:01:49.549Z,15
2016-03-20T06:02:49.552Z,15
2016-03-20T06:03:49.554Z,15
2016-03-20T06:04:49.510Z,15
2016-03-20T06:05:49.527Z,15
2016-03-20T06:06:49.547Z,20
2016-03-20T06:07:49.486Z,20
2016-03-20T06:08:49.536Z,20
2016-03-20T06:09:49.524Z,20
2016-03-20T06:10:49.494Z,20
2016-03-20T06:11:49.529Z,20
2016-03-20T06:12:49.484Z,20
2016-03-20T06:13:49.518Z,20
2016-03-20T06:14:49.520Z,25
2016-03-20T06:15:49.477Z,25
2016-03-20T06:16:49.495Z,25
2016-03-20T06:17:49.451Z,25
2016-03-20T06:18:49.485Z,25
2016-03-20T06:19:49.472Z,25
2016-03-20T06:20:49.475Z,25
2016-03-20T06:21:49.509Z,30
2016-03-20T06:22:49.464Z,30
2016-03-20T06:23:49.451Z,30
2016-03-20T06:24:49.485Z,30
2016-03-20T06:25:49.488Z,30
2016-03-20T06:26:49.491Z,30
2016-03-20T06:27:49.462Z,30
2016-03-20T06:28:49.511Z,35
2016-03-20T06:29:49.452Z,35
2016-03-20T06:30:49.423Z,35
2016-03-20T06:31:49.505Z,35
2016-03-20T06:32:49.429Z,35
2016-03-20T06:33:49.510Z,35
2016-03-20T06:34:49.419Z,40
2016-03-20T06:35:49.453Z,40
2016-03-20T06:36:49.471Z,40
2016-03-20T06:37:49.426Z,40
2016-03-20T06:38:49.444Z,45
2016-03-20T06:39:49.494Z,45
2016-03-20T06:40:49.388Z,45
2016-03-20T06:41:49.421Z,45
2016-03-20T06:42:49.409Z,45
2016-03-20T06:43:49.380Z,50
2016-03-20T06:44:49.415Z,50
2016-03-20T06:45:49.385Z,50
2016-03-20T06:46:49.404Z,50
2016-03-20T06:47:49.391Z,50
2016-03-20T06:48:49.410Z,50
2016-03-20T06:49:49.381Z,50
2016-03-20T06:50:49.398Z,50
2016-03-20T06:51:49.480Z,50
2016-03-20T06:52:49.420Z,50
2016-03-20T06:53:49.407Z,50
2016-03-20T06:54:49.363Z,50
2016-03-20T06:55:49.365Z,50
2016-03-20T06:56:49.368Z,50
2016-03-20T06:57:49.340Z,55
2016-03-20T06:58:49.373Z,55
2016-03-20T06:59:49.392Z,55
2016-03-20T07:00:49.364Z,55
2016-03-20T07:01:49.381Z,60
2016-03-20T07:02:49.353Z,60
2016-03-20T07:03:49.372Z,60
2016-03-20T07:04:49.374Z,60
2016-03-20T07:05:49.346Z,65
2016-03-20T07:06:49.380Z,65
2016-03-20T07:07:49.351Z,65
2016-03-20T07:08:49.369Z,70
2016-03-20T07:09:49.357Z,70
2016-03-20T07:10:49.343Z,70
2016-03-20T07:11:49.363Z,75
2016-03-20T07:12:49.365Z,75
2016-03-20T07:13:49.368Z,75
2016-03-20T07:14:49.323Z,80
2016-03-20T07:15:49.310Z,80
2016-03-20T07:16:49.344Z,80
2016-03-20T07:17:49.315Z,85
2016-03-20T07:18:49.334Z,85
2016-03-20T07:19:49.320Z,85
2016-03-20T07:20:49.355Z,85
2016-03-20T07:21:49.342Z,90
2016-03-20T07:22:49.298Z,90
2016-03-20T07:23:49.315Z,90
2016-03-20T07:24:49.303Z,90
2016-03-20T07:25:49.275Z,95
2016-03-20T07:26:49.292Z,95
2016-03-20T07:27:49.295Z,95
2016-03-20T07:28:49.314Z,95
2016-03-20T07:29:49.316Z,95
2016-03-20T07:30:49.256Z,100
2016-03-20T07:31:49.322Z,100
2016-03-20T07:32:49.355Z,100
2016-03-20T07:33:49.312Z,100
2016-03-20T07:34:49.330Z,105
2016-03-20T07:35:49.301Z,105
2016-03-20T07:36:49.289Z,105
2016-03-20T07:37:49.216Z,110
2016-03-20T07:38:49.452Z,110
2016-03-20T07:39:49.269Z,110
2016-03-20T07:40:49.317Z,110
2016-03-20T07:41:49.257Z,110
2016-03-20T07:42:49.308Z,110
2016-03-20T07:43:49.294Z,110
2016-03-20T07:44:49.250Z,110
2016-03-20T07:45:49.285Z,110
2016-03-20T07:46:49.271Z,110
2016-03-20T07:47:49.258Z,110
2016-03-20T07:48:49.261Z,110
2016-03-20T07:49:49.248Z,115
2016-03-20T07:50:49.251Z,110
2016-03-20T07:51:49.269Z,110
2016-03-20T07:52:49.240Z,115
2016-03-20T07:53:49.275Z,115
2016-03-20T07:54:49.262Z,115
2016-03-20T07:55:49.264Z,115
2016-03-20T07:56:49.299Z,115
2016-03-20T07:57:49.285Z,115
2016-03-20T07:58:49.273Z,125
2016-03-20T07:59:49.228Z,125
2016-03-20T08:00:49.262Z,125
2016-03-20T08:01:49.280Z,135
2016-03-20T08:02:49.237Z,130
2016-03-20T08:03:49.270Z,135
2016-03-20T08:04:49.241Z,140
2016-03-20T08:05:49.260Z,135
2016-03-20T08:06:49.216Z,135
2016-03-20T08:07:49.250Z,140
2016-03-20T08:08:49.236Z,140
2016-03-20T08:09:49.224Z,135
2016-03-20T08:10:49.242Z,140
2016-03-20T08:11:49.213Z,140
2016-03-20T08:12:49.200Z,140
2016-03-20T08:13:49.235Z,140
2016-03-20T08:14:49.222Z,140
2016-03-20T08:15:49.240Z,140
2016-03-20T08:16:49.196Z,140
2016-03-20T08:17:49.213Z,140
2016-03-20T08:18:49.201Z,140
2016-03-20T08:19:49.266Z,145
2016-03-20T08:20:49.238Z,145
2016-03-20T08:21:49.193Z,145
2016-03-20T08:22:49.212Z,145
2016-03-20T08:23:49.230Z,150
2016-03-20T08:24:49.217Z,150
2016-03-20T08:25:49.220Z,155
2016-03-20T08:26:49.207Z,155
2016-03-20T08:27:49.178Z,160
2016-03-20T08:28:49.213Z,160
2016-03-20T08:29:49.184Z,160
2016-03-20T08:30:49.202Z,160
2016-03-20T08:31:49.189Z,165
2016-03-20T08:32:49.207Z,165
2016-03-20T08:33:49.210Z,170
2016-03-20T08:34:49.197Z,170
2016-03-20T08:35:49.231Z,175
2016-03-20T08:36:49.156Z,175
2016-03-20T08:37:49.206Z,180
2016-03-20T08:38:49.161Z,185
2016-03-20T08:39:49.180Z,185
2016-03-20T08:40:49.167Z,185
2016-03-20T08:41:48.997Z,185
2016-03-20T08:42:49.219Z,185
2016-03-20T08:43:49.143Z,190
2016-03-20T08:44:49.193Z,195
2016-03-20T08:45:49.211Z,195
2016-03-20T08:46:49.167Z,195
2016-03-20T08:47:49.138Z,195
2016-03-20T08:48:49.172Z,200
2016-03-20T08:49:49.160Z,200
2016-03-20T08:50:49.146Z,205
2016-03-20T08:51:49.180Z,210
2016-03-20T08:52:49.168Z,210
2016-03-20T08:53:49.201Z,215
2016-03-20T08:54:49.157Z,215
2016-03-20T08:55:49.176Z,220
2016-03-20T08:56:49.147Z,220
2016-03-20T08:57:49.181Z,225
2016-03-20T08:58:49.152Z,225
2016-03-20T08:59:49.155Z,230
2016-03-20T09:00:49.173Z,230
2016-03-20T09:01:49.160Z,235
2016-03-20T09:02:49.131Z,240
2016-03-20T09:03:49.198Z,240
2016-03-20T09:04:49.168Z,240
2016-03-20T09:05:49.139Z,250
2016-03-20T09:06:49.017Z,245
2016-03-20T09:07:49.161Z,245
2016-03-20T09:08:49.164Z,250
2016-03-20T09:09:49.150Z,250
2016-03-20T09:10:49.153Z,250
2016-03-20T09:11:49.172Z,255
2016-03-20T09:12:49.159Z,255
2016-03-20T09:13:49.021Z,255
2016-03-20T09:14:49.133Z,255
2016-03-20T09:15:49.183Z,255
2016-03-20T09:16:49.169Z,255
2016-03-20T09:17:49.141Z,265
2016-03-20T09:18:49.175Z,260
2016-03-20T09:19:49.130Z,260
2016-03-20T09:20:49.165Z,265
2016-03-20T09:21:49.199Z,265
2016-03-20T09:22:49.170Z,265
2016-03-20T09:23:49.157Z,265
2016-03-20T09:24:49.160Z,270
2016-03-20T09:25:49.146Z,270
2016-03-20T09:26:49.165Z,270
2016-03-20T09:27:49.152Z,275
2016-03-20T09:28:49.170Z,280
2016-03-20T09:29:49.127Z,285
2016-03-20T09:30:49.129Z,295
2016-03-20T09:31:49.178Z,335
2016-03-20T09:32:49.198Z,335
2016-03-20T09:33:49.137Z,325
2016-03-20T09:34:49.170Z,335
2016-03-20T09:35:49.142Z,325
2016-03-20T09:36:49.208Z,315
2016-03-20T09:37:49.179Z,300
2016-03-20T09:38:49.167Z,280
2016-03-20T09:39:49.200Z,280
2016-03-20T09:40:49.172Z,275
2016-03-20T09:41:49.159Z,270
2016-03-20T09:42:49.161Z,275
2016-03-20T09:43:49.179Z,280
2016-03-20T09:44:49.183Z,255
2016-03-20T09:45:49.169Z,250
2016-03-20T09:46:49.156Z,245
2016-03-20T09:47:49.019Z,240
2016-03-20T09:48:49.021Z,245
2016-03-20T09:49:49.149Z,240
2016-03-20T09:50:49.214Z,235
2016-03-20T09:51:49.186Z,235
2016-03-20T09:52:49.157Z,230
2016-03-20T09:53:49.050Z,235
2016-03-20T09:54:49.178Z,235
2016-03-20T09:55:49.165Z,235
2016-03-20T09:56:49.215Z,245
2016-03-20T09:57:49.186Z,255
2016-03-20T09:58:49.235Z,245
2016-03-20T09:59:49.207Z,250
2016-03-20T10:00:49.193Z,260
2016-03-20T10:01:49.212Z,275
2016-03-20T10:02:49.262Z,275
2016-03-20T10:03:49.202Z,305
2016-03-20T10:04:49.220Z,300
2016-03-20T10:05:49.207Z,300
2016-03-20T10:06:49.210Z,295
2016-03-20T10:07:49.181Z,295
2016-03-20T10:08:49.184Z,290
2016-03-20T10:09:49.202Z,290
2016-03-20T10:10:49.190Z,290
2016-03-20T10:11:49.208Z,285
2016-03-20T10:12:49.195Z,285
2016-03-20T10:13:49.198Z,285
2016-03-20T10:14:49.231Z,280
2016-03-20T10:15:49.219Z,275
2016-03-20T10:16:49.205Z,270
2016-03-20T10:17:49.364Z,270
2016-03-20T10:18:49.211Z,265
2016-03-20T10:19:49.213Z,270
2016-03-20T10:20:49.186Z,265
2016-03-20T10:21:49.204Z,265
2016-03-20T10:22:49.238Z,260
2016-03-20T10:23:49.241Z,265
2016-03-20T10:24:49.212Z,260
2016-03-20T10:25:49.183Z,260
2016-03-20T10:26:49.202Z,260
2016-03-20T10:27:49.251Z,255
2016-03-20T10:28:49.191Z,260
2016-03-20T10:29:49.210Z,240
2016-03-20T10:30:49.213Z,220
2016-03-20T10:31:49.199Z,225
2016-03-20T10:32:49.359Z,230
2016-03-20T10:33:49.221Z,225
2016-03-20T10:34:49.192Z,235
2016-03-20T10:35:49.210Z,230
2016-03-20T10:36:49.228Z,220
2016-03-20T10:37:49.263Z,215
2016-03-20T10:38:49.218Z,225
2016-03-20T10:39:49.205Z,255
2016-03-20T10:40:49.223Z,250
2016-03-20T10:41:49.211Z,255
2016-03-20T10:42:49.228Z,255
2016-03-20T10:43:49.216Z,250
2016-03-20T10:44:49.203Z,255
2016-03-20T10:45:49.206Z,260
2016-03-20T10:46:49.208Z,260
2016-03-20T10:47:49.242Z,260
2016-03-20T10:48:49.214Z,260
2016-03-20T10:49:49.216Z,260
2016-03-20T10:50:49.235Z,260
2016-03-20T10:51:49.206Z,260
2016-03-20T10:52:49.224Z,260
2016-03-20T10:53:49.212Z,260
2016-03-20T10:54:49.214Z,260
2016-03-20T10:55:49.263Z,260
2016-03-20T10:56:49.235Z,255
2016-03-20T10:57:49.269Z,240
2016-03-20T10:58:49.224Z,240
2016-03-20T10:59:49.212Z,250
2016-03-20T11:00:49.262Z,245
2016-03-20T11:01:49.218Z,245
2016-03-20T11:02:49.251Z,235
2016-03-20T11:03:49.223Z,235
2016-03-20T11:04:49.226Z,235
2016-03-20T11:05:49.228Z,230
2016-03-20T11:06:49.246Z,230
2016-03-20T11:07:49.233Z,230
2016-03-20T11:08:49.220Z,235
2016-03-20T11:09:49.240Z,225
2016-03-20T11:10:49.242Z,225
2016-03-20T11:11:49.244Z,225
2016-03-20T11:12:49.262Z,225
2016-03-20T11:13:49.265Z,220
2016-03-20T11:14:49.236Z,220
2016-03-20T11:15:49.239Z,215
2016-03-20T11:16:49.258Z,225
2016-03-20T11:17:49.105Z,225
2016-03-20T11:18:49.247Z,225
2016-03-20T11:19:49.297Z,225
2016-03-20T11:20:49.253Z,225
2016-03-20T11:21:49.271Z,225
2016-03-20T11:22:49.227Z,225
2016-03-20T11:23:49.246Z,225
2016-03-20T11:24:49.248Z,225
2016-03-20T11:25:49.252Z,225
2016-03-20T11:26:49.254Z,225
2016-03-20T11:27:49.241Z,220
2016-03-20T11:28:49.212Z,225
2016-03-20T11:29:49.246Z,225
2016-03-20T11:30:49.265Z,230
2016-03-20T11:31:49.251Z,220
2016-03-20T11:32:48.535Z,220
2016-03-20T11:33:49.241Z,220
2016-03-20T11:34:49.244Z,220
2016-03-20T11:35:49.262Z,220
2016-03-20T11:36:49.233Z,215
2016-03-20T11:37:49.252Z,215
2016-03-20T11:38:49.270Z,215
2016-03-20T11:39:49.272Z,215
2016-03-20T11:40:49.556Z,215
2016-03-20T11:42:03.294Z,215
2016-03-20T11:42:49.297Z,215
2016-03-20T11:43:49.268Z,215
2016-03-20T11:44:49.256Z,215
2016-03-20T11:45:49.664Z,215
2016-03-20T11:46:49.260Z,210
2016-03-20T11:47:49.263Z,210
2016-03-20T11:49:32.144Z,210
2016-03-20T11:49:49.316Z,210
2016-03-20T11:50:49.255Z,210
2016-03-20T11:51:48.508Z,210
2016-03-20T11:52:49.324Z,210
2016-03-20T11:53:49.263Z,210
2016-03-20T11:54:49.266Z,210
2016-03-20T11:55:49.268Z,205
2016-03-20T11:56:49.255Z,205
2016-03-20T11:57:49.274Z,205
2016-03-20T11:58:49.246Z,205
2016-03-20T11:59:49.264Z,205
2016-03-20T12:00:49.252Z,210
2016-03-20T12:01:49.254Z,205
2016-03-20T12:02:49.319Z,210
2016-03-20T12:03:49.244Z,210
2016-03-20T12:04:49.277Z,210
2016-03-20T12:05:49.248Z,210
2016-03-20T12:06:49.282Z,210
2016-03-20T12:07:49.270Z,205
2016-03-20T12:08:49.241Z,210
2016-03-20T12:09:49.276Z,205
2016-03-20T12:10:49.278Z,205
2016-03-20T12:11:49.265Z,205
2016-03-20T12:12:49.299Z,205
2016-03-20T12:13:49.271Z,205
2016-03-20T12:14:49.289Z,205
2016-03-20T12:15:49.322Z,210
2016-03-20T12:16:49.263Z,210
2016-03-20T12:17:49.344Z,205
2016-03-20T12:18:49.268Z,210
2016-03-20T12:19:49.286Z,205
2016-03-20T12:20:49.289Z,205
2016-03-20T12:21:49.292Z,205
2016-03-20T12:22:49.325Z,205
2016-03-20T12:23:49.266Z,205
2016-03-20T12:24:49.285Z,200
2016-03-20T12:25:49.287Z,200
2016-03-20T12:26:49.275Z,205
2016-03-20T12:27:49.293Z,205
2016-03-20T12:28:49.263Z,200
2016-03-20T12:29:49.267Z,200
2016-03-20T12:30:49.316Z,200
2016-03-20T12:31:49.271Z,200
2016-03-20T12:32:49.275Z,200
2016-03-20T12:33:49.293Z,200
2016-03-20T12:34:49.296Z,200
2016-03-20T12:35:49.330Z,200
2016-03-20T12:36:49.270Z,200
2016-03-20T12:37:49.304Z,200
2016-03-20T12:38:48.588Z,205
2016-03-20T12:39:49.293Z,200
2016-03-20T12:40:49.343Z,200
2016-03-20T12:41:49.284Z,200
2016-03-20T12:42:49.318Z,195
2016-03-20T12:43:49.273Z,195
2016-03-20T12:44:49.306Z,195
2016-03-20T12:45:49.325Z,195
2016-03-20T12:46:49.297Z,195
2016-03-20T12:47:49.315Z,195
2016-03-20T12:48:49.287Z,195
2016-03-20T12:49:49.320Z,195
2016-03-20T12:50:49.292Z,195
2016-03-20T12:51:49.279Z,195
2016-03-20T12:52:49.297Z,195
2016-03-20T12:53:49.269Z,195
2016-03-20T12:54:49.319Z,195
2016-03-20T12:55:49.305Z,200
2016-03-20T12:56:49.136Z,195
2016-03-20T12:57:49.357Z,195
2016-03-20T12:58:49.282Z,195
2016-03-20T12:59:49.285Z,195
2016-03-20T13:00:49.318Z,195
2016-03-20T13:01:49.321Z,195
2016-03-20T13:02:49.308Z,195
2016-03-20T13:03:49.311Z,195
2016-03-20T13:04:49.329Z,195
2016-03-20T13:05:49.316Z,195
2016-03-20T13:06:49.179Z,195
2016-03-20T13:07:49.306Z,195
2016-03-20T13:08:49.325Z,195
2016-03-20T13:09:49.327Z,195
2016-03-20T13:10:49.330Z,195
2016-03-20T13:11:49.317Z,195
2016-03-20T13:12:49.335Z,195
2016-03-20T13:13:49.323Z,195
2016-03-20T13:14:49.340Z,195
2016-03-20T13:15:49.328Z,195
2016-03-20T13:16:49.346Z,195
2016-03-20T13:17:49.303Z,195
2016-03-20T13:18:49.336Z,195
2016-03-20T13:19:49.339Z,200
2016-03-20T13:20:49.295Z,200
2016-03-20T13:21:49.344Z,200
2016-03-20T13:22:49.316Z,205
2016-03-20T13:23:49.334Z,200
2016-03-20T13:24:49.353Z,200
2016-03-20T13:25:49.324Z,195
2016-03-20T13:26:49.342Z,195
2016-03-20T13:27:49.360Z,195
2016-03-20T13:28:49.332Z,195
2016-03-20T13:29:49.350Z,195
2016-03-20T13:30:49.353Z,200
2016-03-20T13:31:49.404Z,200
2016-03-20T13:32:49.344Z,200
2016-03-20T13:33:49.348Z,195
2016-03-20T13:34:49.336Z,190
2016-03-20T13:35:49.323Z,190
2016-03-20T13:36:49.280Z,190
2016-03-20T13:37:49.253Z,195
2016-03-20T13:38:49.250Z,190
2016-03-20T13:39:49.294Z,190
2016-03-20T13:40:49.261Z,190
2016-03-20T13:41:49.274Z,190
2016-03-20T13:42:49.255Z,190
2016-03-20T13:43:49.272Z,190
2016-03-20T13:44:49.257Z,190
2016-03-20T13:45:49.242Z,190
2016-03-20T13:46:49.275Z,190
2016-03-20T13:47:49.243Z,190
2016-03-20T13:48:49.230Z,190
2016-03-20T13:49:49.262Z,175
2016-03-20T13:50:49.264Z,185
2016-03-20T13:51:49.250Z,185
2016-03-20T13:52:49.237Z,185
2016-03-20T13:53:49.255Z,185
2016-03-20T13:54:49.243Z,175
2016-03-20T13:55:49.245Z,185
2016-03-20T13:56:49.247Z,170
2016-03-20T13:57:49.249Z,185
2016-03-20T13:58:49.220Z,165
2016-03-20T13:59:49.222Z,185
2016-03-20T14:00:49.272Z,185
2016-03-20T14:01:49.260Z,185
2016-03-20T14:02:49.247Z,185
2016-03-20T14:03:49.250Z,185
2016-03-20T14:04:49.269Z,190
2016-03-20T14:05:49.255Z,190
2016-03-20T14:06:49.274Z,190
2016-03-20T14:07:49.291Z,190
2016-03-20T14:08:49.247Z,190
2016-03-20T14:09:49.235Z,190
2016-03-20T14:10:49.237Z,190
2016-03-20T14:11:49.255Z,190
2016-03-20T14:12:49.289Z,190
2016-03-20T14:13:49.229Z,185